createdAt,value
2019-05-02T00:01:52.850Z,10.17
2019-05-02T00:04:21.266Z,8.10
2019-05-02T00:07:05.219Z,6.00
2019-05-02T00:09:33.515Z,6.50
2019-05-02T00:12:01.786Z,8.17
2019-05-02T00:14:29.087Z,9.03
2019-05-02T00:16:56.022Z,7.10
2019-05-02T00:19:23.118Z,9.73
2019-05-02T00:21:50.121Z,7.67
2019-05-02T00:24:17.046Z,8.23
2019-05-02T00:26:43.957Z,9.00
2019-05-02T00:29:11.090Z,8.80
2019-05-02T00:31:41.890Z,9.53
2019-05-02T00:34:06.755Z,10.60
2019-05-02T00:36:33.745Z,11.07
2019-05-02T00:39:00.699Z,8.27
2019-05-02T00:41:27.590Z,7.53
2019-05-02T00:43:54.493Z,8.23
2019-05-02T00:46:21.302Z,6.77
2019-05-02T00:48:58.985Z,11.93
2019-05-02T00:51:26.774Z,10.30
2019-05-02T00:53:51.482Z,7.00
2019-05-02T00:56:18.270Z,9.40
2019-05-02T00:58:45.194Z,7.40
2019-05-02T01:01:37.756Z,7.40
2019-05-02T01:04:27.582Z,6.20
2019-05-02T01:06:53.880Z,8.83
2019-05-02T01:09:20.675Z,9.27
2019-05-02T01:11:47.573Z,8.93
2019-05-02T01:14:14.520Z,7.47
2019-05-02T01:16:41.328Z,8.37
2019-05-02T01:19:12.236Z,8.23
2019-05-02T01:21:38.844Z,7.93
2019-05-02T01:24:06.073Z,5.80
2019-05-02T01:27:04.645Z,8.47
2019-05-02T01:29:39.993Z,8.10
2019-05-02T01:32:25.260Z,7.10
2019-05-02T01:35:07.890Z,8.77
2019-05-02T01:37:54.851Z,9.67
2019-05-02T01:40:21.990Z,9.67
2019-05-02T01:42:50.707Z,6.23
2019-05-02T01:45:17.650Z,7.87
2019-05-02T01:47:44.424Z,6.47
2019-05-02T01:50:12.032Z,9.33
2019-05-02T01:52:39.042Z,6.93
2019-05-02T01:55:06.045Z,9.17
2019-05-02T01:57:32.841Z,10.33
2019-05-02T02:00:04.303Z,8.57
2019-05-02T02:02:32.830Z,8.63
2019-05-02T02:04:58.056Z,10.90
2019-05-02T02:07:25.158Z,8.10
2019-05-02T02:09:52.054Z,7.30
2019-05-02T02:12:18.931Z,9.00
2019-05-02T02:14:48.135Z,6.77
2019-05-02T02:17:15.481Z,8.23
2019-05-02T02:19:49.047Z,7.67
2019-05-02T02:22:39.095Z,6.90
2019-05-02T02:25:32.219Z,12.03
2019-05-02T02:27:59.761Z,11.67
2019-05-02T02:30:26.721Z,9.13
2019-05-02T02:33:00.514Z,10.40
2019-05-02T02:35:22.749Z,8.80
2019-05-02T02:37:53.385Z,6.37
2019-05-02T02:40:18.480Z,8.17
2019-05-02T02:42:45.666Z,12.10
2019-05-02T02:45:29.368Z,6.90
2019-05-02T02:47:59.941Z,9.00
2019-05-02T02:50:25.131Z,10.17
2019-05-02T02:52:51.978Z,8.13
2019-05-02T02:55:21.922Z,11.60
2019-05-02T02:57:47.719Z,12.30
2019-05-02T03:00:14.951Z,11.00
2019-05-02T03:02:47.513Z,11.50
2019-05-02T03:05:10.956Z,7.33
2019-05-02T03:07:37.977Z,10.13
2019-05-02T03:10:06.046Z,12.20
2019-05-02T03:12:43.160Z,8.60
2019-05-02T03:15:14.146Z,9.03
2019-05-02T03:17:41.119Z,10.53
2019-05-02T03:20:08.159Z,7.60
2019-05-02T03:22:41.965Z,7.40
2019-05-02T03:25:04.071Z,8.30
2019-05-02T03:27:37.361Z,9.53
2019-05-02T03:30:00.102Z,8.23
2019-05-02T03:32:34.466Z,9.80
2019-05-02T03:34:56.139Z,9.70
2019-05-02T03:37:23.234Z,7.13
2019-05-02T03:39:57.520Z,9.77
2019-05-02T03:42:19.206Z,5.43
2019-05-02T03:44:55.224Z,7.20
2019-05-02T03:47:15.169Z,7.60
2019-05-02T03:49:48.543Z,8.67
2019-05-02T03:52:11.511Z,7.13
2019-05-02T03:54:48.972Z,8.50
2019-05-02T03:57:07.491Z,11.00
2019-05-02T03:59:39.174Z,8.23
2019-05-02T04:02:03.444Z,11.00
2019-05-02T04:04:32.517Z,10.67
2019-05-02T04:07:01.079Z,9.63
2019-05-02T04:09:39.088Z,7.40
2019-05-02T04:12:03.413Z,10.20
2019-05-02T04:14:37.884Z,9.80
2019-05-02T04:16:59.979Z,10.53
2019-05-02T04:19:28.704Z,10.53
2019-05-02T04:22:01.846Z,7.87
2019-05-02T04:24:25.330Z,9.13
2019-05-02T04:26:56.018Z,10.10
2019-05-02T04:29:24.747Z,13.23
2019-05-02T04:31:50.078Z,11.00
2019-05-02T04:34:17.903Z,9.00
2019-05-02T04:36:46.667Z,7.43
2019-05-02T04:39:20.451Z,10.10
2019-05-02T04:41:42.710Z,8.47
2019-05-02T04:44:09.553Z,5.63
2019-05-02T04:46:38.737Z,7.60
2019-05-02T04:49:32.686Z,9.50
2019-05-02T04:52:04.448Z,10.47
2019-05-02T04:54:28.306Z,10.30
2019-05-02T04:56:55.154Z,8.63
2019-05-02T04:59:22.768Z,7.50
2019-05-02T05:01:56.705Z,6.17
2019-05-02T05:04:17.800Z,6.13
2019-05-02T05:06:52.910Z,8.93
2019-05-02T05:09:15.023Z,6.43
2019-05-02T05:11:42.245Z,11.57
2019-05-02T05:14:10.073Z,7.10
2019-05-02T05:16:37.316Z,4.87
2019-05-02T05:19:07.612Z,6.30
2019-05-02T05:21:34.570Z,6.80
2019-05-02T05:24:21.130Z,4.10
2019-05-02T05:26:51.710Z,7.93
2019-05-02T05:29:23.129Z,6.50
2019-05-02T05:31:48.241Z,4.23
2019-05-02T05:34:17.302Z,5.17
2019-05-02T05:36:44.146Z,7.13
2019-05-02T05:39:11.806Z,5.23
2019-05-02T05:41:42.631Z,6.07
2019-05-02T05:44:07.863Z,5.20
2019-05-02T05:46:38.735Z,3.30
2019-05-02T05:49:03.670Z,4.87
2019-05-02T05:51:30.477Z,5.57
2019-05-02T05:54:02.751Z,6.57
2019-05-02T05:56:27.918Z,4.47
2019-05-02T05:58:58.871Z,9.00
2019-05-02T06:01:26.132Z,5.10
2019-05-02T06:03:53.447Z,6.10
2019-05-02T06:06:23.206Z,6.97
2019-05-02T06:08:53.890Z,5.53
2019-05-02T06:11:20.105Z,6.60
2019-05-02T06:13:48.778Z,5.60
2019-05-02T06:16:16.677Z,5.40
2019-05-02T06:18:43.797Z,6.73
2019-05-02T06:21:10.817Z,2.23
2019-05-02T06:23:41.363Z,5.43
2019-05-02T06:26:13.041Z,4.87
2019-05-02T06:28:36.214Z,7.13
2019-05-02T06:31:07.174Z,5.90
2019-05-02T06:33:33.116Z,5.00
2019-05-02T06:36:01.483Z,3.40
2019-05-02T06:38:28.838Z,3.90
2019-05-02T06:40:55.722Z,4.47
2019-05-02T06:43:22.654Z,2.97
2019-05-02T06:45:49.523Z,4.03
2019-05-02T06:48:17.637Z,2.17
2019-05-02T06:50:45.296Z,5.20
2019-05-02T06:53:12.235Z,4.03
2019-05-02T06:55:39.126Z,4.47
2019-05-02T06:58:08.208Z,5.07
2019-05-02T07:00:42.984Z,2.47
2019-05-02T07:03:04.947Z,6.37
2019-05-02T07:05:32.838Z,3.80
2019-05-02T07:07:59.717Z,4.17
2019-05-02T07:10:29.780Z,4.63
2019-05-02T07:13:09.874Z,5.83
2019-05-02T07:15:50.107Z,9.20
2019-05-02T07:18:18.105Z,4.00
2019-05-02T07:20:44.986Z,4.57
2019-05-02T07:23:16.453Z,6.43
2019-05-02T07:25:44.039Z,5.60
2019-05-02T07:28:10.758Z,3.27
2019-05-02T07:30:38.238Z,2.57
2019-05-02T07:33:05.012Z,1.67
2019-05-02T07:35:31.937Z,4.57
2019-05-02T07:37:58.930Z,3.00
2019-05-02T07:40:26.018Z,5.77
2019-05-02T07:42:52.858Z,3.90
2019-05-02T07:45:19.865Z,3.13
2019-05-02T07:47:46.642Z,4.10
2019-05-02T07:50:13.693Z,3.33
2019-05-02T07:52:41.251Z,3.03
2019-05-02T07:55:10.163Z,3.27
2019-05-02T07:57:37.130Z,0.90
2019-05-02T08:00:05.236Z,2.40
2019-05-02T08:02:32.138Z,2.60
2019-05-02T08:04:58.995Z,1.30
2019-05-02T08:07:33.823Z,1.83
2019-05-02T08:09:54.697Z,3.57
2019-05-02T08:12:21.620Z,1.80
2019-05-02T08:14:48.522Z,2.13
2019-05-02T08:17:18.993Z,1.63
2019-05-02T08:19:44.090Z,2.70
2019-05-02T08:22:13.695Z,3.10
2019-05-02T08:24:39.894Z,1.70
2019-05-02T08:27:38.474Z,3.07
2019-05-02T08:30:08.209Z,5.20
2019-05-02T08:32:35.137Z,4.40
2019-05-02T08:35:02.124Z,2.13
2019-05-02T08:37:29.037Z,2.77
2019-05-02T08:39:55.866Z,4.77
2019-05-02T08:42:22.678Z,18.90
2019-05-02T08:44:51.304Z,4.57
2019-05-02T08:47:19.325Z,1.73
2019-05-02T08:49:49.384Z,4.77
2019-05-02T08:52:15.326Z,3.83
2019-05-02T08:54:42.167Z,8.27
2019-05-02T08:57:08.936Z,4.57
2019-05-02T08:59:35.741Z,4.90
2019-05-02T09:02:02.897Z,6.80
2019-05-02T09:04:30.700Z,5.80
2019-05-02T09:06:59.251Z,3.03
2019-05-02T09:09:27.981Z,6.27
2019-05-02T09:12:09.112Z,2.13
2019-05-02T09:14:24.332Z,7.87
2019-05-02T09:16:52.356Z,2.03
2019-05-02T09:19:21.383Z,4.73
2019-05-02T09:21:48.273Z,5.87
2019-05-02T09:24:20.981Z,3.90
2019-05-02T09:26:43.929Z,5.23
2019-05-02T09:29:12.570Z,1.63
2019-05-02T09:31:42.219Z,7.63
2019-05-02T09:34:08.642Z,4.30
2019-05-02T09:36:38.112Z,2.37
2019-05-02T09:39:05.860Z,6.90
2019-05-02T09:41:36.225Z,6.70
2019-05-02T09:44:02.884Z,5.67
2019-05-02T09:46:29.809Z,2.97
2019-05-02T09:48:57.012Z,3.17
2019-05-02T09:51:25.537Z,4.13
2019-05-02T09:53:52.515Z,5.60
2019-05-02T09:56:19.502Z,4.23
2019-05-02T09:58:49.202Z,4.93
2019-05-02T10:01:27.610Z,3.27
2019-05-02T10:03:54.661Z,4.30
2019-05-02T10:06:22.982Z,5.90
2019-05-02T10:08:52.005Z,4.10
2019-05-02T10:11:22.527Z,5.03
2019-05-02T10:13:47.768Z,8.27
2019-05-02T10:16:17.940Z,3.87
2019-05-02T10:18:43.718Z,4.43
2019-05-02T10:21:13.492Z,3.80
2019-05-02T10:23:39.724Z,5.37
2019-05-02T10:26:06.875Z,4.00
2019-05-02T10:28:33.791Z,3.40
2019-05-02T10:31:02.289Z,4.27
2019-05-02T10:33:33.552Z,2.97
2019-05-02T10:35:58.142Z,2.60
2019-05-02T10:38:24.981Z,4.13
2019-05-02T10:40:56.686Z,5.43
2019-05-02T10:43:22.264Z,3.03
2019-05-02T10:45:56.464Z,4.33
2019-05-02T10:48:28.263Z,3.13
2019-05-02T10:50:54.600Z,6.37
2019-05-02T10:53:21.901Z,3.83
2019-05-02T10:55:48.988Z,3.17
2019-05-02T10:58:15.778Z,2.10
2019-05-02T11:00:45.348Z,6.17
2019-05-02T11:03:33.182Z,2.40
2019-05-02T11:06:03.645Z,4.83
2019-05-02T11:08:32.006Z,3.80
2019-05-02T11:10:58.902Z,4.77
2019-05-02T11:13:45.518Z,3.60
2019-05-02T11:16:32.177Z,3.63
2019-05-02T11:19:08.974Z,4.90
2019-05-02T11:21:35.879Z,7.80
2019-05-02T11:24:03.189Z,4.13
2019-05-02T11:26:32.225Z,3.83
2019-05-02T11:28:58.873Z,4.43
2019-05-02T11:31:25.753Z,4.37
2019-05-02T11:33:52.926Z,3.23
2019-05-02T11:36:22.234Z,9.00
2019-05-02T11:38:56.029Z,8.37
2019-05-02T11:41:18.156Z,5.57
2019-05-02T11:43:45.055Z,5.27
2019-05-02T11:46:12.170Z,3.50
2019-05-02T11:48:39.173Z,7.77
2019-05-02T11:51:07.314Z,2.00
2019-05-02T11:53:34.773Z,5.60
2019-05-02T11:56:05.710Z,5.20
2019-05-02T11:58:32.489Z,6.40
2019-05-02T12:01:02.856Z,8.90
2019-05-02T12:03:39.319Z,6.67
2019-05-02T12:06:06.568Z,4.53
2019-05-02T12:08:35.027Z,5.33
2019-05-02T12:11:03.739Z,6.77
2019-05-02T12:13:32.301Z,4.03
2019-05-02T12:15:59.573Z,11.87
2019-05-02T12:18:26.477Z,7.13
2019-05-02T12:20:53.447Z,5.33
2019-05-02T12:23:22.471Z,6.90
2019-05-02T12:25:49.154Z,7.20
2019-05-02T12:28:16.142Z,9.40
2019-05-02T12:30:43.093Z,8.60
2019-05-02T12:33:12.319Z,6.70
2019-05-02T12:35:39.218Z,6.87
2019-05-02T12:38:05.999Z,7.63
2019-05-02T12:40:33.049Z,7.57
2019-05-02T12:42:59.958Z,6.07
2019-05-02T12:45:27.139Z,11.73
2019-05-02T12:47:53.966Z,7.53
2019-05-02T12:50:22.592Z,7.30
2019-05-02T12:52:49.811Z,14.77
2019-05-02T12:55:16.742Z,8.90
2019-05-02T12:57:43.537Z,5.17
2019-05-02T13:00:12.836Z,10.00
2019-05-02T13:02:52.520Z,7.47
2019-05-02T13:05:22.116Z,6.63
2019-05-02T13:07:54.050Z,7.50
2019-05-02T13:10:33.561Z,3.70
2019-05-02T13:13:00.506Z,3.73
2019-05-02T13:15:27.817Z,5.00
2019-05-02T13:17:54.779Z,5.87
2019-05-02T13:20:24.729Z,5.93
2019-05-02T13:23:12.712Z,1.70
2019-05-02T13:25:39.759Z,3.00
2019-05-02T13:28:06.645Z,3.23
2019-05-02T13:30:55.954Z,4.77
2019-05-02T13:36:37.883Z,4.03
2019-05-02T13:39:07.634Z,5.80
2019-05-02T13:41:34.544Z,4.37
2019-05-02T13:44:02.241Z,5.70
2019-05-02T13:46:29.189Z,4.23
2019-05-02T13:48:56.091Z,6.27
2019-05-02T13:51:22.914Z,6.60
2019-05-02T13:54:01.983Z,3.07
2019-05-02T13:56:45.189Z,5.90
2019-05-02T13:59:13.026Z,4.23
2019-05-02T14:01:42.251Z,4.63
2019-05-02T14:04:10.405Z,3.03
2019-05-02T14:06:38.137Z,10.67
2019-05-02T14:09:26.397Z,7.37
2019-05-02T14:11:59.120Z,4.90
2019-05-02T14:14:26.021Z,5.70
2019-05-02T14:16:53.105Z,7.93
2019-05-02T14:19:22.079Z,7.93
2019-05-02T14:21:48.729Z,6.27
2019-05-02T14:24:17.573Z,5.37
2019-05-02T14:26:44.563Z,9.93
2019-05-02T14:29:12.586Z,4.37
2019-05-02T14:31:42.023Z,6.57
2019-05-02T14:34:43.818Z,9.13
2019-05-02T14:37:11.803Z,6.90
2019-05-02T14:39:39.128Z,6.60
2019-05-02T14:42:06.238Z,2.60
2019-05-02T14:45:00.288Z,7.30
2019-05-02T14:47:02.262Z,5.10
2019-05-02T14:49:29.278Z,2.63
2019-05-02T14:51:57.302Z,3.87
2019-05-02T14:54:24.928Z,5.10
2019-05-02T14:57:06.160Z,4.60
2019-05-02T14:59:33.097Z,4.73
2019-05-02T15:02:07.384Z,4.20
2019-05-02T15:04:32.091Z,4.93
2019-05-02T15:06:59.313Z,5.00
2019-05-02T15:09:27.009Z,2.53
2019-05-02T15:11:57.250Z,5.73
2019-05-02T15:14:27.700Z,3.87
2019-05-02T15:16:58.335Z,4.90
2019-05-02T15:19:24.368Z,2.80
2019-05-02T15:21:52.496Z,6.67
2019-05-02T15:24:20.281Z,5.77
2019-05-02T15:26:47.900Z,3.17
2019-05-02T15:29:19.621Z,7.73
2019-05-02T15:31:52.457Z,3.27
2019-05-02T15:34:29.876Z,3.40
2019-05-02T15:36:56.689Z,2.90
2019-05-02T15:41:52.455Z,9.30
2019-05-02T15:44:23.390Z,4.83
2019-05-02T15:46:48.694Z,3.60
2019-05-02T15:49:15.510Z,5.00
2019-05-02T15:51:45.048Z,3.63
2019-05-02T15:54:12.529Z,3.27
2019-05-02T15:56:59.958Z,6.97
2019-05-02T15:59:32.561Z,1.53
2019-05-02T16:02:06.766Z,3.77
2019-05-02T16:04:35.432Z,6.73
2019-05-02T16:07:07.186Z,1.77
2019-05-02T16:09:32.896Z,2.40
2019-05-02T16:11:59.970Z,2.63
2019-05-02T16:14:31.349Z,4.60
2019-05-02T16:16:55.878Z,4.50
2019-05-02T16:19:29.167Z,3.57
2019-05-02T16:21:59.454Z,4.23
2019-05-02T16:24:26.018Z,4.80
2019-05-02T16:26:56.652Z,2.67
2019-05-02T16:29:26.864Z,4.43
2019-05-02T16:32:13.179Z,8.57
2019-05-02T16:34:58.443Z,3.43
2019-05-02T16:37:25.512Z,3.90
2019-05-02T16:39:52.411Z,4.47
2019-05-02T16:42:19.411Z,2.00
2019-05-02T16:44:46.305Z,2.70
2019-05-02T16:47:13.998Z,4.60
2019-05-02T16:49:41.877Z,5.77
2019-05-02T16:52:08.993Z,7.33
2019-05-02T16:54:41.518Z,4.90
2019-05-02T16:57:04.739Z,7.97
2019-05-02T16:59:32.396Z,5.47
2019-05-02T17:02:07.737Z,5.43
2019-05-02T17:04:29.125Z,6.00
2019-05-02T17:07:02.120Z,12.17
2019-05-02T17:09:33.864Z,8.30
2019-05-02T17:12:06.568Z,5.83
2019-05-02T17:14:31.770Z,9.00
2019-05-02T17:16:58.902Z,5.33
2019-05-02T17:19:26.130Z,4.60
2019-05-02T17:21:56.556Z,4.17
2019-05-02T17:24:26.153Z,10.87
2019-05-02T17:26:52.453Z,9.37
2019-05-02T17:29:21.349Z,10.53
2019-05-02T17:31:49.949Z,10.10
2019-05-02T17:34:17.269Z,7.77
2019-05-02T17:36:45.782Z,8.00
2019-05-02T17:39:12.827Z,7.57
2019-05-02T17:41:42.324Z,10.00
2019-05-02T17:44:12.786Z,8.47
2019-05-02T17:46:39.273Z,8.17
2019-05-02T17:49:06.337Z,4.73
2019-05-02T17:52:04.464Z,8.10
2019-05-02T17:54:22.817Z,4.90
2019-05-02T17:56:52.161Z,6.97
2019-05-02T17:59:19.317Z,4.00
2019-05-02T18:01:52.505Z,2.20
2019-05-02T18:04:19.409Z,6.90
2019-05-02T18:06:46.793Z,7.23
2019-05-02T18:09:15.684Z,7.10
2019-05-02T18:11:42.683Z,4.60
2019-05-02T18:14:16.193Z,9.83
2019-05-02T18:16:39.371Z,8.37
2019-05-02T18:19:06.539Z,6.57
2019-05-02T18:21:33.438Z,6.03
2019-05-02T18:24:02.465Z,5.93
2019-05-02T18:26:29.289Z,7.60
2019-05-02T18:28:57.164Z,5.40
2019-05-02T18:31:24.926Z,6.00
2019-05-02T18:33:52.268Z,7.27
2019-05-02T18:36:23.898Z,8.43
2019-05-02T18:38:52.415Z,6.23
2019-05-02T18:41:17.028Z,4.17
2019-05-02T18:43:45.277Z,8.20
2019-05-02T18:46:12.828Z,7.07
2019-05-02T18:48:44.250Z,10.17
2019-05-02T18:51:08.837Z,12.40
2019-05-02T18:53:35.855Z,5.57
2019-05-02T18:56:03.661Z,10.73
2019-05-02T18:58:31.916Z,6.53
2019-05-02T19:00:59.097Z,8.37
2019-05-02T19:03:26.190Z,7.80
2019-05-02T19:05:57.246Z,6.63
2019-05-02T19:08:29.005Z,8.00
2019-05-02T19:11:05.383Z,6.90
2019-05-02T19:13:20.001Z,10.83
2019-05-02T19:15:48.983Z,9.73
2019-05-02T19:18:17.930Z,10.37
2019-05-02T19:21:04.866Z,8.40
2019-05-02T19:23:32.857Z,10.03
2019-05-02T19:26:03.764Z,7.00
2019-05-02T19:28:38.431Z,8.57
2019-05-02T19:31:06.987Z,6.43
2019-05-02T19:33:37.463Z,1.73
2019-05-02T19:36:03.163Z,3.83
2019-05-02T19:38:32.320Z,3.77
2019-05-02T19:41:05.501Z,3.40
2019-05-02T19:43:27.770Z,9.53
2019-05-02T19:45:54.700Z,3.33
2019-05-02T19:48:22.652Z,5.60
2019-05-02T19:50:51.696Z,6.37
2019-05-02T19:53:19.672Z,7.30
2019-05-02T19:55:46.896Z,7.10
2019-05-02T19:58:13.889Z,6.93
2019-05-02T20:00:42.234Z,4.27
2019-05-02T20:03:13.599Z,4.03
2019-05-02T20:05:38.725Z,6.77
2019-05-02T20:08:05.714Z,5.93
2019-05-02T20:10:32.845Z,8.80
2019-05-02T20:13:03.173Z,6.83
2019-05-02T20:15:32.805Z,2.37
2019-05-02T20:18:00.686Z,4.30
2019-05-02T20:20:40.551Z,2.53
2019-05-02T20:23:15.576Z,7.40
2019-05-02T20:25:39.111Z,3.93
2019-05-02T20:28:05.550Z,4.57
2019-05-02T20:30:32.509Z,3.30
2019-05-02T20:32:59.389Z,6.07
2019-05-02T20:35:26.281Z,6.20
2019-05-02T20:37:53.103Z,4.47
2019-05-02T20:40:26.558Z,5.10
2019-05-02T20:42:53.893Z,6.03
2019-05-02T20:45:22.654Z,4.33
2019-05-02T20:47:49.653Z,1.20
2019-05-02T20:50:16.566Z,3.07
2019-05-02T20:52:43.649Z,2.27
2019-05-02T20:55:12.237Z,4.07
2019-05-02T20:57:39.445Z,1.40
2019-05-02T21:00:09.079Z,2.30
2019-05-02T21:02:55.706Z,2.93
2019-05-02T21:05:27.262Z,2.73
2019-05-02T21:08:13.873Z,2.50
2019-05-02T21:10:42.630Z,3.00
2019-05-02T21:13:09.679Z,1.97
2019-05-02T21:15:36.674Z,4.00
2019-05-02T21:18:03.680Z,1.40
2019-05-02T21:20:32.379Z,0.87
2019-05-02T21:22:59.386Z,1.03
2019-05-02T21:25:26.381Z,3.27
2019-05-02T21:27:53.418Z,2.37
2019-05-02T21:30:23.989Z,3.40
2019-05-02T21:32:52.049Z,2.93
2019-05-02T21:35:19.258Z,1.80
2019-05-02T21:37:46.072Z,2.47
2019-05-02T21:40:13.282Z,2.00
2019-05-02T21:42:42.369Z,3.80
2019-05-02T21:45:09.122Z,1.27
2019-05-02T21:47:36.005Z,2.60
2019-05-02T21:50:09.524Z,1.30
2019-05-02T21:52:44.454Z,2.77
2019-05-02T21:55:18.497Z,4.93
2019-05-02T21:57:45.326Z,2.30
2019-05-02T22:00:22.587Z,2.87
2019-05-02T22:02:49.605Z,1.80
2019-05-02T22:05:36.189Z,1.10
2019-05-02T22:08:03.212Z,2.47
2019-05-02T22:10:32.045Z,3.33
2019-05-02T22:12:58.828Z,2.50
2019-05-02T22:15:25.617Z,2.60
2019-05-02T22:17:52.449Z,1.60
2019-05-02T22:20:19.446Z,2.67
2019-05-02T22:22:46.333Z,1.50
2019-05-02T22:25:13.177Z,2.63
2019-05-02T22:27:40.213Z,1.93
2019-05-02T22:30:07.229Z,4.40
2019-05-02T22:32:34.070Z,4.00
2019-05-02T22:35:01.846Z,2.83
2019-05-02T22:37:29.075Z,3.63
2019-05-02T22:40:03.660Z,3.13
2019-05-02T22:42:29.414Z,3.10
2019-05-02T22:44:56.249Z,6.13
2019-05-02T22:47:23.122Z,2.77
2019-05-02T22:49:51.713Z,2.47
2019-05-02T22:52:18.782Z,0.70
2019-05-02T22:54:45.620Z,1.07
2019-05-02T22:57:14.324Z,0.53
2019-05-02T22:59:42.269Z,0.20
2019-05-02T23:02:09.506Z,1.20
2019-05-02T23:04:36.306Z,0.60
2019-05-02T23:07:03.326Z,0.70
2019-05-02T23:09:30.320Z,0.43
2019-05-02T23:11:57.361Z,0.33
2019-05-02T23:14:24.262Z,0.57
2019-05-02T23:16:52.753Z,0.40
2019-05-02T23:19:22.746Z,0.50
2019-05-02T23:21:48.817Z,0.50
2019-05-02T23:24:38.682Z,0.87
2019-05-02T23:27:18.085Z,1.00
2019-05-02T23:29:45.139Z,1.47
2019-05-02T23:32:12.129Z,1.70
2019-05-02T23:34:39.021Z,0.53
2019-05-02T23:37:05.837Z,2.17
2019-05-02T23:39:32.753Z,2.23
2019-05-02T23:41:59.578Z,2.37
2019-05-02T23:44:26.510Z,0.80
2019-05-02T23:46:53.318Z,0.60
2019-05-02T23:49:21.868Z,1.30
2019-05-02T23:51:48.978Z,0.60
2019-05-02T23:54:15.815Z,0.83
2019-05-02T23:56:43.205Z,1.00
2019-05-02T23:59:11.855Z,2.67
